createdAt,value
2019-03-01T00:01:00.035Z,10.90
2019-03-01T00:03:28.732Z,10.90
2019-03-01T00:06:15.334Z,10.80
2019-03-01T00:09:06.052Z,10.80
2019-03-01T00:11:43.322Z,10.80
2019-03-01T00:14:23.311Z,10.80
2019-03-01T00:16:57.631Z,10.80
2019-03-01T00:19:46.040Z,10.80
2019-03-01T00:22:43.385Z,10.80
2019-03-01T00:25:23.448Z,10.80
2019-03-01T00:28:06.649Z,10.80
2019-03-01T00:30:53.413Z,10.80
2019-03-01T00:33:30.842Z,10.70
2019-03-01T00:36:18.729Z,10.70
2019-03-01T00:38:52.897Z,10.60
2019-03-01T00:41:24.369Z,10.60
2019-03-01T00:44:13.941Z,10.60
2019-03-01T00:46:42.352Z,10.60
2019-03-01T00:49:10.758Z,10.60
2019-03-01T00:51:39.179Z,10.60
2019-03-01T00:54:07.577Z,10.60
2019-03-01T00:56:35.987Z,10.60
2019-03-01T00:59:04.944Z,10.60
2019-03-01T01:01:33.365Z,10.60
2019-03-01T01:04:01.785Z,10.50
2019-03-01T01:06:30.199Z,10.60
2019-03-01T01:08:58.622Z,10.50
2019-03-01T01:11:27.011Z,10.40
2019-03-01T01:13:55.427Z,10.30
2019-03-01T01:16:23.887Z,10.40
2019-03-01T01:18:52.288Z,10.40
2019-03-01T01:21:20.693Z,10.30
2019-03-01T01:23:49.109Z,10.30
2019-03-01T01:26:17.529Z,10.30
2019-03-01T01:28:45.951Z,10.30
2019-03-01T01:31:14.351Z,10.30
2019-03-01T01:33:42.752Z,10.30
2019-03-01T01:36:11.142Z,10.20
2019-03-01T01:38:39.563Z,10.20
2019-03-01T01:41:07.947Z,10.20
2019-03-01T01:43:36.349Z,10.20
2019-03-01T01:46:04.823Z,10.10
2019-03-01T01:48:33.228Z,10.10
2019-03-01T01:51:01.646Z,10.10
2019-03-01T01:53:30.047Z,10.00
2019-03-01T01:55:58.436Z,9.90
2019-03-01T01:58:26.861Z,10.00
2019-03-01T02:00:55.238Z,9.90
2019-03-01T02:03:23.641Z,9.90
2019-03-01T02:05:52.041Z,9.80
2019-03-01T02:08:20.511Z,9.80
2019-03-01T02:10:48.983Z,9.90
2019-03-01T02:13:17.374Z,9.90
2019-03-01T02:15:45.759Z,9.90
2019-03-01T02:18:14.163Z,9.90
2019-03-01T02:20:42.555Z,9.80
2019-03-01T02:23:10.969Z,9.80
2019-03-01T02:25:39.350Z,9.80
2019-03-01T02:28:10.352Z,9.90
2019-03-01T02:30:41.878Z,9.90
2019-03-01T02:33:10.269Z,9.90
2019-03-01T02:35:38.685Z,9.90
2019-03-01T02:38:07.088Z,9.90
2019-03-01T02:40:36.030Z,9.90
2019-03-01T02:43:05.171Z,9.90
2019-03-01T02:45:33.714Z,9.90
2019-03-01T02:48:02.199Z,9.90
2019-03-01T02:50:30.571Z,9.90
2019-03-01T02:52:59.863Z,9.90
2019-03-01T02:55:28.305Z,10.00
2019-03-01T02:57:56.726Z,9.90
2019-03-01T03:00:31.796Z,9.90
2019-03-01T03:03:00.299Z,10.00
2019-03-01T03:05:28.764Z,10.10
2019-03-01T03:08:01.591Z,10.00
2019-03-01T03:10:29.983Z,10.10
2019-03-01T03:13:00.737Z,10.20
2019-03-01T03:15:36.532Z,10.20
2019-03-01T03:18:05.005Z,10.20
2019-03-01T03:20:33.388Z,10.10
2019-03-01T03:23:01.807Z,10.10
2019-03-01T03:25:30.187Z,10.00
2019-03-01T03:27:58.595Z,10.00
2019-03-01T03:30:27.139Z,10.00
2019-03-01T03:32:55.596Z,10.00
2019-03-01T03:35:24.009Z,10.00
2019-03-01T03:37:52.625Z,9.90
2019-03-01T03:40:21.038Z,9.90
2019-03-01T03:42:49.441Z,9.90
2019-03-01T03:45:20.509Z,9.90
2019-03-01T03:47:48.892Z,9.80
2019-03-01T03:50:17.317Z,9.80
2019-03-01T03:52:45.695Z,9.80
2019-03-01T03:55:15.987Z,9.80
2019-03-01T03:57:44.546Z,9.90
2019-03-01T04:00:15.938Z,9.80
2019-03-01T04:02:44.339Z,9.80
2019-03-01T04:05:12.977Z,9.70
2019-03-01T04:07:41.410Z,9.70
2019-03-01T04:10:11.534Z,9.80
2019-03-01T04:12:40.005Z,9.70
2019-03-01T04:15:16.279Z,9.80
2019-03-01T04:17:44.676Z,9.90
2019-03-01T04:20:17.997Z,9.90
2019-03-01T04:22:46.560Z,10.00
2019-03-01T04:25:14.981Z,10.00
2019-03-01T04:27:43.442Z,10.00
2019-03-01T04:30:18.639Z,10.00
2019-03-01T04:32:47.036Z,10.10
2019-03-01T04:35:15.516Z,10.10
2019-03-01T04:37:43.922Z,10.10
2019-03-01T04:40:15.616Z,10.20
2019-03-01T04:42:44.007Z,10.20
2019-03-01T04:45:15.494Z,10.10
2019-03-01T04:47:43.881Z,10.10
2019-03-01T04:50:12.910Z,10.10
2019-03-01T04:52:41.609Z,10.10
2019-03-01T04:55:18.967Z,10.00
2019-03-01T04:57:47.369Z,10.00
2019-03-01T05:00:18.352Z,10.10
2019-03-01T05:02:46.752Z,10.10
2019-03-01T05:05:15.591Z,10.10
2019-03-01T05:07:43.995Z,10.20
2019-03-01T05:10:13.449Z,10.20
2019-03-01T05:12:42.093Z,10.10
2019-03-01T05:15:14.574Z,10.00
2019-03-01T05:17:43.361Z,10.00
2019-03-01T05:20:11.790Z,10.00
2019-03-01T05:22:40.198Z,10.00
2019-03-01T05:25:09.931Z,10.00
2019-03-01T05:27:38.330Z,9.90
2019-03-01T05:30:09.939Z,10.00
2019-03-01T05:32:38.347Z,10.00
2019-03-01T05:35:07.599Z,10.00
2019-03-01T05:37:35.999Z,9.90
2019-03-01T05:40:07.439Z,10.00
2019-03-01T05:42:35.851Z,10.00
2019-03-01T05:45:06.656Z,10.00
2019-03-01T05:47:35.081Z,10.00
2019-03-01T05:50:06.959Z,9.80
2019-03-01T05:52:34.847Z,9.80
2019-03-01T05:55:03.613Z,9.80
2019-03-01T05:57:32.029Z,9.80
2019-03-01T06:00:00.426Z,9.80
2019-03-01T06:02:40.637Z,9.80
2019-03-01T06:05:11.964Z,9.70
2019-03-01T06:07:43.452Z,9.70
2019-03-01T06:10:14.910Z,9.70
2019-03-01T06:12:46.392Z,9.70
2019-03-01T06:15:35.969Z,9.70
2019-03-01T06:18:39.426Z,9.70
2019-03-01T06:21:36.797Z,9.70
2019-03-01T06:24:08.275Z,9.70
2019-03-01T06:26:57.913Z,9.70
2019-03-01T06:29:35.044Z,9.70
2019-03-01T06:32:23.585Z,9.60
2019-03-01T06:35:00.521Z,9.50
2019-03-01T06:37:46.985Z,9.50
2019-03-01T06:40:34.515Z,9.40
2019-03-01T06:43:26.389Z,9.30
2019-03-01T06:46:00.697Z,9.10
2019-03-01T06:48:30.742Z,9.00
2019-03-01T06:51:00.772Z,9.00
2019-03-01T06:53:29.184Z,8.90
2019-03-01T06:55:57.585Z,8.90
2019-03-01T06:58:25.999Z,8.90
2019-03-01T07:00:56.023Z,8.90
2019-03-01T07:03:24.432Z,8.80
2019-03-01T07:05:52.829Z,8.80
2019-03-01T07:08:21.226Z,8.90
2019-03-01T07:10:49.617Z,8.80
2019-03-01T07:13:18.023Z,8.90
2019-03-01T07:15:46.415Z,8.90
2019-03-01T07:18:14.997Z,8.90
2019-03-01T07:20:43.415Z,8.90
2019-03-01T07:23:11.817Z,9.00
2019-03-01T07:25:42.324Z,9.00
2019-03-01T07:28:10.345Z,9.10
2019-03-01T07:30:38.736Z,9.10
2019-03-01T07:33:07.147Z,9.10
2019-03-01T07:35:35.545Z,9.20
2019-03-01T07:38:03.948Z,9.30
2019-03-01T07:40:32.353Z,9.30
2019-03-01T07:43:00.821Z,9.50
2019-03-01T07:45:29.234Z,9.50
2019-03-01T07:47:57.619Z,9.50
2019-03-01T07:50:26.044Z,9.50
2019-03-01T07:52:54.427Z,9.50
2019-03-01T07:55:24.964Z,9.60
2019-03-01T07:57:52.993Z,9.50
2019-03-01T08:00:21.397Z,9.50
2019-03-01T08:02:49.781Z,9.50
2019-03-01T08:05:18.197Z,9.60
2019-03-01T08:07:55.646Z,9.60
2019-03-01T08:10:20.930Z,9.60
2019-03-01T08:12:47.667Z,9.70
2019-03-01T08:15:17.335Z,9.70
2019-03-01T08:17:45.723Z,9.80
2019-03-01T08:20:16.251Z,9.90
2019-03-01T08:22:48.673Z,9.90
2019-03-01T08:25:14.881Z,9.90
2019-03-01T08:27:46.459Z,10.00
2019-03-01T08:30:18.177Z,10.10
2019-03-01T08:32:46.607Z,10.20
2019-03-01T08:35:16.247Z,10.30
2019-03-01T08:37:44.631Z,10.30
2019-03-01T08:40:17.674Z,10.30
2019-03-01T08:42:46.157Z,10.50
2019-03-01T08:45:20.803Z,10.40
2019-03-01T08:47:49.303Z,10.50
2019-03-01T08:50:23.766Z,10.40
2019-03-01T08:52:52.162Z,10.40
2019-03-01T08:55:23.649Z,10.30
2019-03-01T08:57:52.034Z,10.20
2019-03-01T09:00:29.440Z,10.10
2019-03-01T09:03:03.570Z,10.10
2019-03-01T09:05:31.988Z,10.10
2019-03-01T09:08:00.383Z,10.00
2019-03-01T09:10:32.408Z,10.10
2019-03-01T09:12:58.897Z,10.20
2019-03-01T09:15:27.320Z,10.10
2019-03-01T09:17:55.719Z,10.20
2019-03-01T09:20:24.133Z,10.30
2019-03-01T09:22:53.816Z,10.50
2019-03-01T09:25:22.225Z,10.60
2019-03-01T09:27:50.627Z,10.70
2019-03-01T09:30:23.882Z,10.60
2019-03-01T09:32:52.275Z,10.50
2019-03-01T09:35:26.142Z,10.60
2019-03-01T09:37:54.535Z,10.60
2019-03-01T09:40:25.588Z,10.70
2019-03-01T09:42:53.231Z,10.80
2019-03-01T09:45:21.677Z,11.00
2019-03-01T09:47:50.070Z,11.10
2019-03-01T09:50:18.489Z,11.20
2019-03-01T09:52:46.945Z,11.20
2019-03-01T09:55:15.367Z,11.20
2019-03-01T09:57:43.825Z,11.30
2019-03-01T10:00:31.575Z,11.30
2019-03-01T10:03:00.899Z,11.10
2019-03-01T10:05:29.376Z,11.00
2019-03-01T10:07:57.780Z,11.00
2019-03-01T10:10:31.398Z,10.90
2019-03-01T10:12:59.802Z,10.90
2019-03-01T10:15:28.221Z,10.70
2019-03-01T10:17:56.603Z,10.70
2019-03-01T10:20:26.122Z,10.70
2019-03-01T10:22:54.586Z,10.60
2019-03-01T10:25:23.069Z,10.60
2019-03-01T10:27:51.480Z,10.50
2019-03-01T10:30:27.793Z,10.50
2019-03-01T10:32:56.262Z,10.40
2019-03-01T10:35:24.676Z,10.30
2019-03-01T10:37:53.766Z,10.30
2019-03-01T10:40:28.622Z,10.20
2019-03-01T10:42:57.044Z,10.20
2019-03-01T10:45:31.967Z,10.40
2019-03-01T10:48:00.365Z,10.40
2019-03-01T10:50:28.771Z,10.40
2019-03-01T10:52:57.174Z,10.30
2019-03-01T10:55:25.580Z,10.20
2019-03-01T10:57:54.057Z,10.20
2019-03-01T11:00:25.531Z,10.20
2019-03-01T11:02:54.480Z,10.30
2019-03-01T11:05:23.315Z,10.40
2019-03-01T11:07:52.961Z,10.40
2019-03-01T11:10:38.870Z,10.30
2019-03-01T11:13:12.305Z,10.40
2019-03-01T11:15:40.782Z,10.50
2019-03-01T11:18:09.254Z,10.40
2019-03-01T11:20:37.637Z,10.50
2019-03-01T11:23:06.109Z,10.60
2019-03-01T11:25:34.563Z,10.60
2019-03-01T11:28:02.989Z,10.50
2019-03-01T11:30:32.633Z,10.40
2019-03-01T11:33:01.120Z,10.30
2019-03-01T11:35:29.578Z,10.30
2019-03-01T11:37:57.996Z,10.20
2019-03-01T11:40:33.913Z,10.10
2019-03-01T11:43:02.569Z,10.10
2019-03-01T11:45:31.039Z,10.20
2019-03-01T11:47:59.448Z,10.30
2019-03-01T11:50:27.851Z,10.30
2019-03-01T11:52:56.431Z,10.20
2019-03-01T11:55:24.840Z,10.10
2019-03-01T11:57:53.239Z,10.10
2019-03-01T12:00:25.853Z,10.20
2019-03-01T12:02:55.223Z,10.20
2019-03-01T12:05:23.678Z,10.30
2019-03-01T12:07:52.082Z,10.20
2019-03-01T12:10:23.149Z,10.10
2019-03-01T12:12:51.559Z,10.10
2019-03-01T12:15:20.030Z,10.10
2019-03-01T12:17:48.439Z,10.10
2019-03-01T12:20:22.535Z,10.20
2019-03-01T12:22:50.953Z,10.30
2019-03-01T12:25:19.416Z,10.40
2019-03-01T12:27:47.828Z,10.50
2019-03-01T12:30:18.271Z,10.40
2019-03-01T12:32:46.662Z,10.50
2019-03-01T12:35:15.145Z,10.50
2019-03-01T12:37:43.544Z,10.50
2019-03-01T12:40:17.535Z,10.60
2019-03-01T12:42:45.939Z,10.60
2019-03-01T12:45:17.293Z,10.50
2019-03-01T12:47:45.971Z,10.60
2019-03-01T12:50:14.843Z,10.40
2019-03-01T12:52:43.530Z,10.30
2019-03-01T12:55:15.000Z,10.20
2019-03-01T12:57:43.479Z,10.20
2019-03-01T13:00:14.711Z,10.10
2019-03-01T13:02:43.111Z,10.10
2019-03-01T13:05:12.951Z,10.20
2019-03-01T13:07:41.369Z,10.30
2019-03-01T13:10:12.875Z,10.50
2019-03-01T13:12:41.347Z,10.70
2019-03-01T13:15:13.816Z,10.80
2019-03-01T13:17:41.713Z,11.10
2019-03-01T13:20:12.556Z,11.20
2019-03-01T13:22:40.967Z,11.50
2019-03-01T13:25:10.638Z,11.70
2019-03-01T13:27:39.044Z,11.60
2019-03-01T13:30:10.668Z,11.90
2019-03-01T13:32:39.063Z,11.90
2019-03-01T13:35:12.373Z,11.90
2019-03-01T13:37:40.415Z,11.80
2019-03-01T13:40:11.833Z,11.70
2019-03-01T13:42:40.245Z,11.70
2019-03-01T13:45:14.852Z,11.50
2019-03-01T13:47:44.149Z,11.50
2019-03-01T13:50:14.959Z,11.40
2019-03-01T13:52:43.697Z,11.50
2019-03-01T13:55:14.811Z,11.60
2019-03-01T13:57:46.128Z,11.60
2019-03-01T14:00:21.868Z,11.50
2019-03-01T14:02:50.611Z,11.40
2019-03-01T14:05:19.159Z,11.40
2019-03-01T14:07:48.625Z,11.30
2019-03-01T14:10:20.196Z,11.30
2019-03-01T14:12:48.613Z,11.40
2019-03-01T14:15:18.066Z,11.70
2019-03-01T14:17:46.806Z,11.90
2019-03-01T14:20:20.432Z,11.70
2019-03-01T14:22:47.913Z,12.00
2019-03-01T14:25:17.567Z,12.30
2019-03-01T14:27:46.036Z,12.40
2019-03-01T14:30:25.154Z,12.80
2019-03-01T14:32:57.642Z,13.00
2019-03-01T14:35:27.147Z,13.20
2019-03-01T14:37:57.261Z,13.30
2019-03-01T14:40:25.884Z,13.30
2019-03-01T14:42:54.379Z,13.00
2019-03-01T14:45:25.938Z,12.90
2019-03-01T14:47:55.029Z,12.80
2019-03-01T14:50:24.968Z,12.70
2019-03-01T14:52:58.409Z,12.50
2019-03-01T14:55:29.582Z,12.50
2019-03-01T14:58:10.388Z,12.40
2019-03-01T15:00:41.864Z,12.20
2019-03-01T15:03:30.608Z,12.00
2019-03-01T15:05:59.190Z,11.80
2019-03-01T15:08:27.676Z,11.70
2019-03-01T15:10:57.116Z,11.60
2019-03-01T15:13:27.698Z,11.60
2019-03-01T15:15:56.280Z,11.60
2019-03-01T15:18:25.117Z,11.60
2019-03-01T15:20:56.211Z,11.60
2019-03-01T15:23:24.787Z,11.70
2019-03-01T15:25:54.340Z,11.70
2019-03-01T15:28:23.187Z,11.60
2019-03-01T15:30:51.592Z,11.60
2019-03-01T15:33:20.018Z,11.60
2019-03-01T15:35:48.422Z,11.70
2019-03-01T15:38:16.820Z,11.70
2019-03-01T15:40:46.238Z,11.70
2019-03-01T15:43:14.622Z,11.70
2019-03-01T15:45:43.048Z,11.70
2019-03-01T15:48:11.434Z,11.60
2019-03-01T15:50:39.895Z,11.60
2019-03-01T15:53:08.419Z,11.60
2019-03-01T15:55:36.839Z,11.60
2019-03-01T15:58:05.297Z,11.60
2019-03-01T16:00:33.797Z,11.60
2019-03-01T16:03:02.211Z,11.40
2019-03-01T16:05:30.649Z,11.20
2019-03-01T16:07:59.043Z,10.90
2019-03-01T16:10:27.465Z,10.50
2019-03-01T16:12:55.849Z,10.20
2019-03-01T16:15:24.265Z,9.90
2019-03-01T16:17:52.673Z,9.70
2019-03-01T16:20:21.160Z,9.60
2019-03-01T16:22:51.087Z,9.50
2019-03-01T16:25:20.583Z,9.50
2019-03-01T16:27:50.756Z,9.40
2019-03-01T16:30:21.193Z,9.30
2019-03-01T16:32:50.780Z,9.30
2019-03-01T16:35:22.079Z,9.30
2019-03-01T16:37:52.115Z,9.30
2019-03-01T16:40:20.521Z,9.30
2019-03-01T16:42:54.136Z,9.40
2019-03-01T16:45:20.993Z,9.40
2019-03-01T16:47:50.331Z,9.50
2019-03-01T16:50:20.565Z,9.50
2019-03-01T16:52:48.975Z,9.50
2019-03-01T16:55:24.391Z,9.60
2019-03-01T16:57:53.605Z,9.70
2019-03-01T17:00:23.766Z,9.60
2019-03-01T17:03:01.057Z,9.60
2019-03-01T17:05:29.568Z,9.70
2019-03-01T17:07:59.686Z,9.70
2019-03-01T17:10:30.260Z,9.70
2019-03-01T17:12:58.291Z,9.70
2019-03-01T17:15:26.788Z,9.80
2019-03-01T17:17:55.195Z,9.80
2019-03-01T17:20:23.611Z,9.80
2019-03-01T17:22:52.080Z,9.80
2019-03-01T17:25:23.588Z,9.80
2019-03-01T17:27:51.681Z,9.80
2019-03-01T17:30:22.049Z,9.80
2019-03-01T17:32:50.585Z,9.80
2019-03-01T17:35:19.139Z,9.80
2019-03-01T17:37:47.543Z,9.80
2019-03-01T17:40:17.850Z,9.90
2019-03-01T17:42:46.425Z,9.80
2019-03-01T17:45:17.282Z,9.80
2019-03-01T17:47:47.195Z,9.80
2019-03-01T17:50:15.747Z,9.80
2019-03-01T17:52:44.152Z,9.80
2019-03-01T17:55:15.660Z,9.80
2019-03-01T17:57:44.055Z,9.90
2019-03-01T18:00:25.343Z,9.80
2019-03-01T18:02:54.822Z,9.80
2019-03-01T18:05:23.221Z,9.80
2019-03-01T18:07:51.624Z,9.70
2019-03-01T18:10:20.036Z,9.70
2019-03-01T18:12:48.453Z,9.70
2019-03-01T18:15:17.314Z,9.60
2019-03-01T18:17:45.738Z,9.50
2019-03-01T18:20:14.669Z,9.40
2019-03-01T18:22:43.103Z,9.40
2019-03-01T18:25:18.944Z,9.30
2019-03-01T18:27:49.657Z,9.30
2019-03-01T18:30:26.649Z,9.30
2019-03-01T18:32:55.070Z,9.40
2019-03-01T18:35:23.521Z,9.40
2019-03-01T18:37:54.887Z,9.40
2019-03-01T18:40:22.062Z,9.40
2019-03-01T18:42:50.467Z,9.50
2019-03-01T18:45:23.399Z,9.50
2019-03-01T18:47:51.818Z,9.50
2019-03-01T18:50:34.324Z,9.50
2019-03-01T18:53:04.236Z,9.50
2019-03-01T18:55:33.116Z,9.50
2019-03-01T18:58:01.608Z,9.50
2019-03-01T19:00:32.403Z,9.50
2019-03-01T19:03:04.354Z,9.60
2019-03-01T19:05:32.524Z,9.60
2019-03-01T19:08:04.558Z,9.60
2019-03-01T19:10:31.192Z,9.60
2019-03-01T19:12:59.619Z,9.60
2019-03-01T19:15:28.088Z,9.60
2019-03-01T19:17:56.744Z,9.60
2019-03-01T19:20:37.909Z,9.50
2019-03-01T19:23:07.236Z,9.60
2019-03-01T19:25:35.631Z,9.60
2019-03-01T19:28:04.115Z,9.60
2019-03-01T19:30:32.509Z,9.50
2019-03-01T19:33:02.224Z,9.50
2019-03-01T19:35:31.053Z,9.50
2019-03-01T19:37:59.448Z,9.40
2019-03-01T19:40:27.847Z,9.40
2019-03-01T19:42:57.377Z,9.40
2019-03-01T19:45:26.318Z,9.40
2019-03-01T19:48:01.665Z,9.50
2019-03-01T19:50:29.967Z,9.50
2019-03-01T19:52:58.380Z,9.50
2019-03-01T19:55:26.791Z,9.40
2019-03-01T19:57:55.199Z,9.30
2019-03-01T20:00:29.668Z,9.30
2019-03-01T20:02:58.143Z,9.30
2019-03-01T20:05:33.206Z,9.30
2019-03-01T20:08:01.893Z,9.30
2019-03-01T20:10:30.481Z,9.30
2019-03-01T20:12:58.901Z,9.30
2019-03-01T20:15:28.543Z,9.20
2019-03-01T20:17:57.028Z,9.20
2019-03-01T20:20:26.382Z,9.20
2019-03-01T20:22:55.232Z,9.20
2019-03-01T20:25:24.002Z,9.20
2019-03-01T20:27:52.431Z,9.20
2019-03-01T20:36:25.797Z,9.30
2019-03-01T20:38:54.206Z,9.20
2019-03-01T20:41:22.619Z,9.20
2019-03-01T20:43:51.026Z,9.10
2019-03-01T20:46:19.431Z,9.10
2019-03-01T20:48:47.861Z,9.10
2019-03-01T20:51:16.436Z,9.00
2019-03-01T20:53:45.766Z,9.00
2019-03-01T20:56:17.011Z,9.10
2019-03-01T20:58:45.140Z,9.00
2019-03-01T21:01:14.472Z,9.00
2019-03-01T21:03:42.991Z,9.00
2019-03-01T21:06:11.405Z,9.00
2019-03-01T21:08:39.828Z,8.90
2019-03-01T21:11:10.153Z,8.90
2019-03-01T21:13:38.355Z,9.00
2019-03-01T21:16:06.831Z,9.00
2019-03-01T21:18:35.247Z,9.00
2019-03-01T21:21:03.728Z,9.00
2019-03-01T21:23:32.149Z,9.00
2019-03-01T21:26:00.540Z,9.00
2019-03-01T21:28:28.975Z,9.00
2019-03-01T21:30:59.096Z,9.00
2019-03-01T21:33:28.283Z,9.00
2019-03-01T21:35:56.803Z,9.00
2019-03-01T21:38:25.236Z,9.00
2019-03-01T21:40:53.609Z,9.00
2019-03-01T21:43:22.031Z,9.10
2019-03-01T21:45:50.435Z,9.10
2019-03-01T21:48:22.004Z,9.10
2019-03-01T21:50:51.126Z,9.00
2019-03-01T21:53:39.893Z,9.10
2019-03-01T21:56:08.838Z,9.10
2019-03-01T21:58:38.653Z,9.10
2019-03-01T22:01:07.403Z,9.10
2019-03-01T22:03:35.830Z,9.20
2019-03-01T22:06:04.301Z,9.10
2019-03-01T22:08:32.715Z,9.20
2019-03-01T22:11:01.110Z,9.20
2019-03-01T22:13:32.490Z,9.20
2019-03-01T22:16:00.981Z,9.20
2019-03-01T22:18:30.711Z,9.20
2019-03-01T22:20:59.152Z,9.20
2019-03-01T22:23:27.583Z,9.10
2019-03-01T22:25:55.983Z,9.10
2019-03-01T22:28:24.417Z,9.10
2019-03-01T22:30:52.889Z,9.10
2019-03-01T22:33:22.107Z,9.00
2019-03-01T22:35:50.773Z,9.00
2019-03-01T22:38:19.191Z,8.90
2019-03-01T22:40:47.581Z,8.90
2019-03-01T22:43:16.071Z,8.90
2019-03-01T22:45:45.493Z,8.90
2019-03-01T22:48:14.157Z,8.90
2019-03-01T22:50:42.795Z,9.00
2019-03-01T22:53:12.525Z,8.90
2019-03-01T22:55:40.928Z,9.00
2019-03-01T22:58:09.344Z,9.00
2019-03-01T23:00:54.561Z,9.00
2019-03-01T23:03:25.130Z,9.00
2019-03-01T23:05:53.595Z,8.90
2019-03-01T23:08:22.018Z,8.90
2019-03-01T23:11:09.755Z,8.90
2019-03-01T23:13:38.175Z,8.80
2019-03-01T23:16:06.706Z,8.80
2019-03-01T23:18:37.584Z,8.70
2019-03-01T23:21:05.333Z,8.50
2019-03-01T23:23:33.747Z,8.40
2019-03-01T23:26:02.156Z,8.40
2019-03-01T23:28:30.575Z,8.40
2019-03-01T23:31:00.593Z,8.30
2019-03-01T23:33:31.565Z,8.30
2019-03-01T23:35:59.583Z,8.30
2019-03-01T23:38:28.001Z,8.40
2019-03-01T23:40:56.404Z,8.40
2019-03-01T23:43:27.565Z,8.40
2019-03-01T23:45:55.195Z,8.40
2019-03-01T23:48:23.708Z,8.50
2019-03-01T23:50:52.137Z,8.50
2019-03-01T23:53:20.522Z,8.50
2019-03-01T23:55:50.884Z,8.40
2019-03-01T23:58:19.317Z,8.50
